Weather reports worldwide

Advertisment
Fichtelberg, Germany (10578): temperature & dewpoint: 10.12.2019 13:00:00 - 16.12.2019 13:00:00 (CET)Fichtelberg, Germany (10578): temperature 5cm & temperature -5cm: 10.12.2019 13:00:00 - 16.12.2019 13:00:00 (CET)Fichtelberg, Germany (10578): temperature -20cm & temperature -100cm: 10.12.2019 13:00:00 - 16.12.2019 13:00:00 (CET)Fichtelberg, Germany (10578): wind speed & gusts: 10.12.2019 13:00:00 - 16.12.2019 13:00:00 (CET)Fichtelberg, Germany (10578): wind direction: 10.12.2019 13:00:00 - 16.12.2019 13:00:00 (CET)Fichtelberg, Germany (10578): visibility: 10.12.2019 13:00:00 - 16.12.2019 13:00:00 (CET)Fichtelberg, Germany (10578): sunshine duration: 10.12.2019 13:00:00 - 16.12.2019 13:00:00 (CET)
Date & Time tt [°C] td [°C] tt 5cm [°C] tt -5cm [°C] tt -20cm [°C] tt -100cm [°C] ff [km/h] ff [kn] fx [km/h] fx [kn] dd vv [km] sd [min]
16.12.2019 13:00:00 4,2 2,6 0,1 0,4 1,2 4,3 40 22 61 33 SSW 62 60
16.12.2019 12:00:00 3,6 2,4 0,0 0,4 1,2 4,3 49 26 61 33 SSW 62 57
16.12.2019 11:00:00 2,8 2,3 0,0 0,4 1,2 4,3 47 26 61 33 SSW 51 10
16.12.2019 10:00:00 2,3 1,9 0,0 0,4 1,2 4,3 46 25 60 33 S 0,3 0
16.12.2019 09:00:00 2,2 1,9 0,0 0,4 1,2 4,3 38 21 54 29 SSW 0,2 0
16.12.2019 08:00:00 2,4 2,0 0,0 0,4 1,2 4,3 40 22 52 28 SSW 0,2 0
16.12.2019 07:00:00 1,9 1,6 0,0 0,4 1,2 4,3 41 22 51 28 SSW 0,1 0
16.12.2019 06:00:00 1,6 1,3 0,0 0,4 1,2 4,3 36 19 50 27 SW 0,1 0
16.12.2019 05:00:00 1,2 0,9 0,0 0,4 1,2 4,3 38 21 48 26 SW 0,2 0
16.12.2019 04:00:00 0,6 0,2 0,0 0,4 1,1 4,3 36 20 46 25 SW 0,2 0
16.12.2019 03:00:00 0,0 -0,5 0,0 0,4 1,1 4,3 33 18 56 30 WSW 0,4 0
16.12.2019 02:00:00 -0,3 -0,8 0,0 0,4 1,1 4,3 43 23 57 31 WSW 0,7 0
16.12.2019 01:00:00 -0,4 -0,9 0,0 0,4 1,1 4,3 40 22 53 29 WSW 0,3 0
16.12.2019 00:00:00 -0,5 -1,0 0,0 0,4 1,1 4,3 44 24 56 31 W 0,8 0
15.12.2019 23:00:00 -0,2 -0,6 0,0 0,3 1,1 4,3 40 22 58 31 W 0,2 0
15.12.2019 22:00:00 -0,2 -0,6 0,0 0,3 1,1 4,3 44 24 65 35 W 0,3 0
15.12.2019 21:00:00 0,1 -0,3 0,0 0,3 1,1 4,3 47 25 65 35 W 0,2 0
15.12.2019 20:00:00 0,0 -0,4 0,0 0,3 1,1 4,3 45 25 63 34 W 0,2 0
15.12.2019 19:00:00 -0,2 -0,7 0,0 0,3 1,1 4,4 52 28 68 37 W 28 0
15.12.2019 18:00:00 -0,2 -0,7 0,0 0,3 1,1 4,4 54 29 78 42 W 22 0
15.12.2019 17:00:00 -0,1 -0,6 0,0 0,3 1,1 4,4 50 27 76 41 W 58 0
15.12.2019 16:00:00 0,4 0,0 0,0 0,3 1,2 4,4 58 32 81 44 W 0,7 0
15.12.2019 15:00:00 2,1 1,7 0,0 0,3 1,2 4,4 45 25 67 36 W 0,3 0
15.12.2019 14:00:00 1,9 1,5 0,0 0,3 1,2 4,4 51 28 71 38 W 0,4 0
15.12.2019 13:00:00 2,3 1,9 0,0 0,3 1,2 4,4 42 23 85 46 W 0,7 0
15.12.2019 12:00:00 2,2 1,9 0,0 0,3 1,2 4,4 63 34 83 45 W 0,2 0
15.12.2019 11:00:00 1,5 1,1 0,0 0,4 1,2 4,4 64 35 80 43 WSW 0,2 0
15.12.2019 10:00:00 0,1 -0,2 -0,1 0,4 1,2 4,4 55 30 82 44 WSW 0,1 0
15.12.2019 09:00:00 0,0 -0,3 -0,1 0,4 1,2 4,4 49 26 61 33 SSW 0,3 0
15.12.2019 08:00:00 -0,2 -0,6 -0,3 0,4 1,2 4,4 40 22 61 33 SSW 0,1 0
15.12.2019 07:00:00 -0,8 -1,3 -0,4 0,4 1,2 4,4 48 26 61 33 SW 0,2 0
15.12.2019 06:00:00 -1,3 -1,9 -0,5 0,4 1,2 4,4 42 23 60 32 SW 0,1 0
15.12.2019 05:00:00 -1,4 -2,0 -0,6 0,4 1,2 4,4 44 24 55 30 SW 0,1 0
15.12.2019 04:00:00 -2,0 -2,7 -0,6 0,4 1,2 4,4 49 26 64 34 WSW 1,3 0
15.12.2019 03:00:00 -2,1 -2,8 -0,5 0,4 1,2 4,4 57 31 76 41 W 1,2 0
15.12.2019 02:00:00 -2,3 -3,0 -0,4 0,4 1,2 4,4 49 26 82 45 W 0,6 0
15.12.2019 01:00:00 -2,4 -3,3 -0,3 0,4 1,2 4,4 66 35 96 52 W 6 0
15.12.2019 00:00:00 -1,4 -2,0 -0,3 0,4 1,2 4,4 58 31 113 61 W 0,1 0
14.12.2019 23:00:00 -1,1 -1,7 -0,3 0,4 1,2 4,4 79 43 109 59 W 0,2 0
14.12.2019 22:00:00 -1,4 -2,0 -0,3 0,4 1,2 4,4 67 36 94 51 W 0,2 0
14.12.2019 21:00:00 -1,6 -2,2 -0,4 0,4 1,2 4,4 66 36 102 55 WSW 0,2 0
14.12.2019 20:00:00 -1,7 -2,4 -0,4 0,4 1,2 4,4 76 41 108 58 WSW 0,3 0
14.12.2019 19:00:00 -1,8 -2,5 -0,4 0,4 1,2 4,4 64 35 93 50 W 0,2 0
14.12.2019 18:00:00 -2,5 -3,3 -0,3 0,4 1,2 4,4 71 38 110 59 W 4,2 0
14.12.2019 17:00:00 -2,1 -2,8 -0,2 0,4 1,2 4,4 72 39 100 54 W 1,4 0
14.12.2019 16:00:00 -1,7 -2,4 -0,2 0,4 1,2 4,4 60 33 86 47 W 0,3 0
14.12.2019 15:00:00 -1,8 -2,4 -0,2 0,4 1,2 4,4 69 37 102 55 W 0,3 0
14.12.2019 14:00:00 -1,7 -2,3 -0,2 0,4 1,2 4,4 66 36 116 63 W 0,2 0
14.12.2019 13:00:00 -1,5 -2,1 -0,3 0,4 1,2 4,4 83 45 110 59 W 0,3 0
14.12.2019 12:00:00 -1,9 -2,6 -0,4 0,4 1,2 4,4 66 36 87 47 W 0,2 0
14.12.2019 11:00:00 -2,6 -3,4 -0,4 0,4 1,2 4,4 61 33 81 44 SW 0,6 0
14.12.2019 10:00:00 -2,8 -3,6 -0,5 0,4 1,2 4,4 54 29 68 37 SW 0,7 0
14.12.2019 09:00:00 -3,2 -4,1 -0,5 0,4 1,2 4,4 46 25 63 34 SSW 0,2 0
14.12.2019 08:00:00 -3,1 -3,9 -0,5 0,3 1,2 4,4 36 19 64 35 SW 0,1 0
14.12.2019 07:00:00 -3,0 -3,9 -0,5 0,3 1,2 4,4 53 29 76 41 SW 0,2 0
14.12.2019 06:00:00 -2,9 -3,7 -0,4 0,3 1,2 4,4 50 27 78 42 WSW 0,2 0
14.12.2019 05:00:00 -2,6 -3,5 -0,4 0,3 1,2 4,4 46 25 80 43 WSW 0,4 0
14.12.2019 04:00:00 -2,5 -3,3 -0,4 0,3 1,2 4,4 58 31 74 40 W 0,2 0
14.12.2019 03:00:00 -2,4 -3,1 -0,5 0,3 1,2 4,4 52 28 77 42 W 0,3 0
14.12.2019 02:00:00 -2,6 -3,4 -0,4 0,3 1,2 4,4 54 29 72 39 W 0,2 0
14.12.2019 01:00:00 -2,7 -3,5 -0,4 0,3 1,2 4,4 53 28 72 39 W 0,4 0
14.12.2019 00:00:00 -2,5 -3,3 -0,4 0,3 1,2 4,4 52 28 67 36 WSW 0,2 0
13.12.2019 23:00:00 -2,4 -3,1 -0,5 0,3 1,2 4,4 50 27 67 36 WSW 0,2 0
13.12.2019 22:00:00 -2,4 -3,1 -0,5 0,3 1,2 4,4 46 25 61 33 WSW 0,4 0
13.12.2019 21:00:00 -2,6 -3,3 -0,6 0,3 1,2 4,5 49 26 64 35 WSW 0,2 0
13.12.2019 20:00:00 -3,0 -3,8 -0,6 0,3 1,2 4,5 50 27 63 34 WSW 0,4 0
13.12.2019 19:00:00 -3,3 -4,1 -0,7 0,3 1,2 4,5 45 25 58 31 WSW 0,8 0
13.12.2019 18:00:00 -3,8 -4,8 -0,7 0,3 1,2 4,5 42 23 55 30 SW 0,9 0
13.12.2019 17:00:00 -4,3 -5,3 -0,7 0,3 1,2 4,5 37 20 52 28 SSW 0,3 0
13.12.2019 16:00:00 -4,5 -5,5 -0,7 0,3 1,2 4,5 36 20 67 36 S 0,3 0
13.12.2019 15:00:00 -4,6 -5,6 -0,7 0,3 1,2 4,5 37 20 69 37 SSE 0,4 0
13.12.2019 14:00:00 -4,7 -5,8 -0,6 0,3 1,2 4,5 45 24 68 37 S 0,5 8
13.12.2019 13:00:00 -5,0 -6,3 -0,6 0,3 1,2 4,5 32 17 45 25 SSE 0,4 26
13.12.2019 12:00:00 -5,6 -6,8 -0,8 0,3 1,2 4,5 33 18 44 24 SE 0,2 0
13.12.2019 11:00:00 -6,0 -7,2 -1,1 0,3 1,2 4,5 26 14 43 23 SE 0,2 0
13.12.2019 10:00:00 -6,2 -7,5 -1,3 0,3 1,2 4,5 36 19 59 32 SSE 0,2 0
13.12.2019 09:00:00 -6,1 -7,4 -1,4 0,3 1,2 4,5 43 23 66 36 SSE 0,3 0
13.12.2019 08:00:00 -6,2 -7,5 -1,3 0,3 1,2 4,5 37 20 66 36 SSE 0,3 0
13.12.2019 07:00:00 -5,7 -6,9 -1,3 0,3 1,2 4,5 45 24 61 33 SSE 0,3 0
13.12.2019 06:00:00 -5,5 -6,7 -1,3 0,3 1,2 4,5 40 22 58 31 SSE 0,2 0
13.12.2019 05:00:00 -5,1 -6,2 -1,3 0,3 1,2 4,5 41 22 61 33 SE 0,3 0
13.12.2019 04:00:00 -4,5 -5,5 -1,0 0,3 1,2 4,5 50 27 74 40 SSE 0,6 0
13.12.2019 03:00:00 -4,4 -5,4 -1,0 0,3 1,2 4,5 50 27 72 39 S 0,1 0
13.12.2019 02:00:00 -4,1 -5,0 -0,9 0,3 1,2 4,5 50 27 68 37 S 0,3 0
13.12.2019 01:00:00 -3,8 -4,7 -0,9 0,3 1,2 4,5 45 25 63 34 S 0,1 0
13.12.2019 00:00:00 -3,9 -4,8 -0,9 0,3 1,2 4,5 41 22 58 31 S 0,1 0
12.12.2019 23:00:00 -3,9 -4,8 -1,0 0,3 1,2 4,5 31 17 48 26 S 0,1 0
12.12.2019 22:00:00 -3,8 -4,7 -1,0 0,3 1,2 4,5 27 14 43 23 S 0,2 0
12.12.2019 21:00:00 -3,7 -4,6 -0,9 0,3 1,2 4,5 27 14 44 24 S 0,1 0
12.12.2019 20:00:00 -3,6 -4,5 -0,9 0,3 1,2 4,5 29 16 41 22 S 0,1 0
12.12.2019 19:00:00 -3,4 -4,2 -0,9 0,3 1,2 4,5 23 12 40 22 S 0,1 0
12.12.2019 18:00:00 -3,4 -4,2 -0,9 0,3 1,2 4,5 29 16 40 21 SSW 0,1 0
12.12.2019 17:00:00 -3,3 -4,1 -0,9 0,3 1,2 4,5 30 16 48 26 SW 0,2 0
12.12.2019 16:00:00 -3,2 -4,0 -0,7 0,3 1,2 4,5 36 19 45 25 SW 0,5 0
12.12.2019 15:00:00 -3,3 -4,1 -0,6 0,3 1,2 4,5 36 19 46 25 SW 0,3 0
12.12.2019 14:00:00 -3,4 -4,3 -0,4 0,3 1,2 4,5 37 20 49 26 WSW 0,2 0
12.12.2019 13:00:00 -3,2 -4,1 -0,3 0,3 1,2 4,5 31 17 45 24 WSW 0,3 0
12.12.2019 12:00:00 -2,9 -3,8 -0,4 0,3 1,2 4,5 31 17 42 23 WSW 1,3 0
12.12.2019 11:00:00 -3,1 -4,0 -0,7 0,3 1,2 4,5 31 17 41 22 W 2,0 0
12.12.2019 10:00:00 -3,2 -4,1 -0,9 0,3 1,2 4,5 24 13 29 16 W 0,6 0
12.12.2019 09:00:00 -3,6 -4,5 -1,1 0,3 1,2 4,5 21 11 27 15 W 0,3 0
12.12.2019 08:00:00 -3,6 -4,5 -1,3 0,3 1,2 4,5 21 12 29 15 W 0,2 0
12.12.2019 07:00:00 -3,9 -4,7 -1,4 0,3 1,2 4,5 21 11 39 21 WNW 0,1 0
12.12.2019 06:00:00 -4,3 -5,3 -1,6 0,3 1,2 4,5 32 18 48 26 W 0,5 0
12.12.2019 05:00:00 -4,4 -5,4 -1,7 0,3 1,2 4,5 39 21 50 27 W 1,6 0
12.12.2019 04:00:00 -4,5 -5,5 -1,9 0,3 1,2 4,5 39 21 50 27 WSW 0,7 0
12.12.2019 03:00:00 -4,6 -5,6 -2,0 0,3 1,2 4,6 40 22 55 30 WSW 0,5 0
12.12.2019 02:00:00 -4,7 -5,6 -2,1 0,3 1,2 4,6 36 19 55 30 SW 0,2 0
12.12.2019 01:00:00 -4,6 -5,4 -2,0 0,3 1,2 4,6 49 26 61 33 SSW 0,1 0
12.12.2019 00:00:00 -4,7 -5,4 -2,0 0,3 1,2 4,6 44 24 60 32 SW 0,2 0
11.12.2019 23:00:00 -4,4 -6,4 -2,0 0,3 1,2 4,6 49 26 62 34 SW 12 0
11.12.2019 22:00:00 -2,9 -6,7 -1,5 0,3 1,2 4,6 53 29 66 36 SW 66 0
11.12.2019 21:00:00 -0,1 -4,3 -1,9 0,3 1,2 4,6 56 31 68 37 SW 75 0
11.12.2019 20:00:00 -1,3 -15,4 -2,6 0,3 1,2 4,6 52 28 61 33 SW 75 0
11.12.2019 19:00:00 -1,3 -15,7 -2,6 0,3 1,2 4,6 54 29 61 33 SW 75 0
11.12.2019 18:00:00 -1,0 -16,8 -2,5 0,3 1,2 4,6 55 30 65 35 SSW 75 0
11.12.2019 17:00:00 -1,9 -13,8 -2,6 0,3 1,2 4,6 54 29 63 34 SSW 71 0
11.12.2019 16:00:00 -2,2 -14,0 -2,7 0,3 1,2 4,6 52 28 58 31 SSW 75 0
11.12.2019 15:00:00 -2,8 -12,3 -2,7 0,3 1,2 4,6 49 27 61 33 SSW 71 27
11.12.2019 14:00:00 -2,1 -11,8 -1,8 0,3 1,2 4,6 55 30 63 34 SSW 75 60
11.12.2019 13:00:00 -2,4 -11,7 -2,1 0,3 1,2 4,6 54 29 60 32 SSW 69 44
11.12.2019 12:00:00 -2,2 -11,5 -1,9 0,3 1,2 4,6 51 27 56 30 SSW 75 53
11.12.2019 11:00:00 -2,0 -12,5 -2,0 0,3 1,2 4,6 48 26 51 27 SSW 75 0
11.12.2019 10:00:00 -2,4 -12,0 -2,3 0,3 1,3 4,6 48 26 53 28 SW 75 23
11.12.2019 09:00:00 -2,9 -11,8 -2,7 0,3 1,3 4,6 48 26 54 29 SW 75 51
11.12.2019 08:00:00 -3,9 -10,7 -3,3 0,3 1,3 4,6 51 28 59 32 SW 75 0
11.12.2019 07:00:00 -4,4 -9,9 -3,2 0,3 1,3 4,6 55 30 61 33 SW 60 0
11.12.2019 06:00:00 -3,5 -10,8 -3,1 0,3 1,3 4,6 59 32 66 36 SW 74 0
11.12.2019 05:00:00 -5,3 -9,7 -2,9 0,3 1,3 4,6 59 32 67 36 SW 67 0
11.12.2019 04:00:00 -5,7 -7,7 -3,2 0,3 1,3 4,6 58 32 67 36 SW 43 0
11.12.2019 03:00:00 -5,8 -7,4 -3,2 0,3 1,3 4,6 54 29 68 37 SSW 37 0
11.12.2019 02:00:00 -5,9 -7,3 -3,1 0,3 1,3 4,6 56 31 69 38 SW 29 0
11.12.2019 01:00:00 -5,7 -7,0 -3,1 0,3 1,3 4,6 55 30 67 36 SW 24 0
11.12.2019 00:00:00 -5,8 -7,2 -3,1 0,3 1,3 4,6 54 29 66 36 SW 28 0
10.12.2019 23:00:00 -5,8 -7,2 -3,0 0,4 1,3 4,6 50 27 61 33 SW 18 0
10.12.2019 22:00:00 -5,5 -6,7 -2,7 0,4 1,3 4,6 44 24 60 32 SW 4,9 0
10.12.2019 21:00:00 -5,0 -6,0 -2,4 0,4 1,3 4,6 38 21 53 29 SW 0,9 0
10.12.2019 20:00:00 -5,1 -6,2 -2,4 0,4 1,3 4,6 38 21 50 27 WSW 1,2 0
10.12.2019 19:00:00 -4,9 -6,0 -2,3 0,4 1,3 4,6 36 20 46 25 WSW 0,6 0
10.12.2019 18:00:00 -4,7 -5,8 -2,6 0,4 1,3 4,6 24 13 32 18 W 1,3 0
10.12.2019 17:00:00 -4,1 -5,2 -1,6 0,4 1,3 4,7 22 12 33 18 WSW 10 0
10.12.2019 16:00:00 -3,6 -4,5 -1,3 0,4 1,3 4,7 24 13 39 21 W 3,6 0
10.12.2019 15:00:00 -3,4 -4,3 -1,1 0,5 1,3 4,7 28 15 38 21 W 0,3 0
10.12.2019 14:00:00 -3,4 -4,3 -1,0 0,4 1,3 4,7 25 14 39 21 W 0,3 0
10.12.2019 13:00:00 -3,5 -4,4 -1,0 0,4 1,3 4,7 33 18 42 23 WNW 0,4 0

tt = temperature
td = dewpoint
tt 5cm = temperature 5cm
tt -5cm = temperature -5cm
tt -20cm = temperature -20cm
tt -100cm = temperature -100cm
ff = wind speed
fx = gusts
dd = wind direction
vv = visibility
sd = sunshine duration

Next stations